sensor_id;sensor_type;location;lat;lon;timestamp;pressure;altitude;pressure_sealevel;temperature;humidity
44351;BME280;62766;62.622;17.912;2023-03-09T00:01:16;99454.35;;;-8.87;44.74
44351;BME280;62766;62.622;17.912;2023-03-09T00:03:46;99455.79;;;-8.79;44.69
44351;BME280;62766;62.622;17.912;2023-03-09T00:06:14;99456.25;;;-8.95;44.75
44351;BME280;62766;62.622;17.912;2023-03-09T00:08:43;99451.48;;;-8.93;44.68
44351;BME280;62766;62.622;17.912;2023-03-09T00:11:13;99455.22;;;-9.05;44.79
44351;BME280;62766;62.622;17.912;2023-03-09T00:13:43;99450.58;;;-9.05;44.89
44351;BME280;62766;62.622;17.912;2023-03-09T00:16:14;99450.06;;;-9.04;44.90
44351;BME280;62766;62.622;17.912;2023-03-09T00:18:44;99454.30;;;-9.08;44.76
44351;BME280;62766;62.622;17.912;2023-03-09T00:21:12;99447.94;;;-9.16;44.81
44351;BME280;62766;62.622;17.912;2023-03-09T00:23:41;99446.62;;;-9.24;44.85
44351;BME280;62766;62.622;17.912;2023-03-09T00:26:10;99446.70;;;-9.25;44.88
44351;BME280;62766;62.622;17.912;2023-03-09T00:28:38;99447.50;;;-9.23;44.96
44351;BME280;62766;62.622;17.912;2023-03-09T00:31:07;99447.91;;;-9.42;45.05
44351;BME280;62766;62.622;17.912;2023-03-09T00:33:35;99444.63;;;-9.41;45.23
44351;BME280;62766;62.622;17.912;2023-03-09T00:36:05;99447.97;;;-9.46;45.31
44351;BME280;62766;62.622;17.912;2023-03-09T00:38:33;99448.59;;;-9.40;45.40
44351;BME280;62766;62.622;17.912;2023-03-09T00:41:03;99451.04;;;-9.37;45.41
44351;BME280;62766;62.622;17.912;2023-03-09T00:43:32;99444.63;;;-9.23;45.47
44351;BME280;62766;62.622;17.912;2023-03-09T00:46:00;99439.13;;;-9.25;45.41
44351;BME280;62766;62.622;17.912;2023-03-09T00:48:28;99435.34;;;-9.28;45.42
44351;BME280;62766;62.622;17.912;2023-03-09T00:50:56;99435.14;;;-9.22;45.30
44351;BME280;62766;62.622;17.912;2023-03-09T00:53:25;99435.44;;;-9.29;45.09
44351;BME280;62766;62.622;17.912;2023-03-09T00:55:53;99439.95;;;-9.37;44.86
44351;BME280;62766;62.622;17.912;2023-03-09T00:58:23;99439.11;;;-9.49;45.02
44351;BME280;62766;62.622;17.912;2023-03-09T01:00:52;99438.87;;;-9.31;44.96
44351;BME280;62766;62.622;17.912;2023-03-09T01:03:20;99439.42;;;-9.43;44.98
44351;BME280;62766;62.622;17.912;2023-03-09T01:05:50;99438.65;;;-9.41;44.81
44351;BME280;62766;62.622;17.912;2023-03-09T01:08:19;99441.62;;;-9.56;44.74
44351;BME280;62766;62.622;17.912;2023-03-09T01:10:47;99446.71;;;-9.55;44.73
44351;BME280;62766;62.622;17.912;2023-03-09T01:13:16;99445.01;;;-9.62;44.55
44351;BME280;62766;62.622;17.912;2023-03-09T01:15:45;99451.38;;;-9.69;44.46
44351;BME280;62766;62.622;17.912;2023-03-09T01:18:14;99452.23;;;-9.69;44.36
44351;BME280;62766;62.622;17.912;2023-03-09T01:20:43;99450.58;;;-9.92;44.65
44351;BME280;62766;62.622;17.912;2023-03-09T01:23:11;99448.28;;;-9.87;44.60
44351;BME280;62766;62.622;17.912;2023-03-09T01:25:41;99443.19;;;-9.99;44.75
44351;BME280;62766;62.622;17.912;2023-03-09T01:28:10;99441.06;;;-9.90;44.74
44351;BME280;62766;62.622;17.912;2023-03-09T01:30:40;99441.31;;;-10.05;44.93
44351;BME280;62766;62.622;17.912;2023-03-09T01:33:10;99444.21;;;-10.00;44.85
44351;BME280;62766;62.622;17.912;2023-03-09T01:35:38;99442.98;;;-10.06;44.84
44351;BME280;62766;62.622;17.912;2023-03-09T01:38:07;99440.65;;;-10.10;44.95
44351;BME280;62766;62.622;17.912;2023-03-09T01:40:35;99438.30;;;-10.25;44.97
44351;BME280;62766;62.622;17.912;2023-03-09T01:43:32;99439.12;;;-10.23;44.92
44351;BME280;62766;62.622;17.912;2023-03-09T01:46:38;99440.51;;;-10.30;44.97
44351;BME280;62766;62.622;17.912;2023-03-09T01:49:13;99444.57;;;-10.38;45.07
44351;BME280;62766;62.622;17.912;2023-03-09T01:51:48;99449.38;;;-10.41;45.27
44351;BME280;62766;62.622;17.912;2023-03-09T01:54:22;99448.91;;;-10.63;45.52
44351;BME280;62766;62.622;17.912;2023-03-09T01:56:54;99448.11;;;-10.63;45.61
44351;BME280;62766;62.622;17.912;2023-03-09T01:59:26;99446.32;;;-10.76;46.20
44351;BME280;62766;62.622;17.912;2023-03-09T02:01:56;99449.00;;;-10.72;45.98
44351;BME280;62766;62.622;17.912;2023-03-09T02:04:31;99445.61;;;-10.72;45.93
44351;BME280;62766;62.622;17.912;2023-03-09T02:07:01;99451.89;;;-10.75;46.05
44351;BME280;62766;62.622;17.912;2023-03-09T02:09:34;99451.69;;;-10.70;46.49
44351;BME280;62766;62.622;17.912;2023-03-09T02:12:04;99448.97;;;-10.60;46.29
44351;BME280;62766;62.622;17.912;2023-03-09T02:14:33;99449.36;;;-10.75;45.95
44351;BME280;62766;62.622;17.912;2023-03-09T02:17:02;99445.69;;;-10.80;46.04
44351;BME280;62766;62.622;17.912;2023-03-09T02:19:39;99444.71;;;-10.61;46.04
44351;BME280;62766;62.622;17.912;2023-03-09T02:22:09;99449.02;;;-10.79;46.01
44351;BME280;62766;62.622;17.912;2023-03-09T02:24:48;99448.26;;;-10.72;46.20
44351;BME280;62766;62.622;17.912;2023-03-09T02:27:18;99451.11;;;-10.77;46.25
44351;BME280;62766;62.622;17.912;2023-03-09T02:29:48;99452.72;;;-10.71;45.94
44351;BME280;62766;62.622;17.912;2023-03-09T02:32:17;99450.40;;;-10.82;45.69
44351;BME280;62766;62.622;17.912;2023-03-09T02:34:46;99451.34;;;-10.75;45.53
44351;BME280;62766;62.622;17.912;2023-03-09T02:37:32;99448.90;;;-10.83;45.68
44351;BME280;62766;62.622;17.912;2023-03-09T02:40:03;99447.84;;;-10.82;45.84
44351;BME280;62766;62.622;17.912;2023-03-09T02:42:34;99446.88;;;-10.99;45.61
44351;BME280;62766;62.622;17.912;2023-03-09T02:45:04;99450.10;;;-10.94;45.31
44351;BME280;62766;62.622;17.912;2023-03-09T02:47:34;99447.97;;;-11.07;45.48
44351;BME280;62766;62.622;17.912;2023-03-09T02:50:03;99453.49;;;-11.14;45.76
44351;BME280;62766;62.622;17.912;2023-03-09T02:52:31;99455.90;;;-11.13;45.79
44351;BME280;62766;62.622;17.912;2023-03-09T02:55:00;99457.18;;;-11.40;45.99
44351;BME280;62766;62.622;17.912;2023-03-09T02:57:29;99459.35;;;-11.41;46.12
44351;BME280;62766;62.622;17.912;2023-03-09T02:59:58;99462.91;;;-11.33;46.15
44351;BME280;62766;62.622;17.912;2023-03-09T03:02:27;99464.84;;;-11.40;46.38
44351;BME280;62766;62.622;17.912;2023-03-09T03:04:55;99468.32;;;-11.44;46.30
44351;BME280;62766;62.622;17.912;2023-03-09T03:07:24;99467.19;;;-11.57;46.35
44351;BME280;62766;62.622;17.912;2023-03-09T03:09:53;99469.82;;;-11.54;46.53
44351;BME280;62766;62.622;17.912;2023-03-09T03:12:23;99475.55;;;-11.70;46.72
44351;BME280;62766;62.622;17.912;2023-03-09T03:14:52;99479.06;;;-11.72;46.72
44351;BME280;62766;62.622;17.912;2023-03-09T03:17:20;99480.42;;;-11.60;46.41
44351;BME280;62766;62.622;17.912;2023-03-09T03:19:49;99481.92;;;-11.65;46.32
44351;BME280;62766;62.622;17.912;2023-03-09T03:22:17;99479.71;;;-11.66;46.29
44351;BME280;62766;62.622;17.912;2023-03-09T03:24:46;99477.20;;;-11.62;46.32
44351;BME280;62766;62.622;17.912;2023-03-09T03:27:15;99475.59;;;-11.67;46.14
44351;BME280;62766;62.622;17.912;2023-03-09T03:29:44;99478.26;;;-11.79;46.07
44351;BME280;62766;62.622;17.912;2023-03-09T03:32:13;99475.52;;;-11.78;46.29
44351;BME280;62766;62.622;17.912;2023-03-09T03:34:41;99481.75;;;-11.70;46.33
44351;BME280;62766;62.622;17.912;2023-03-09T03:37:10;99479.70;;;-11.75;46.30
44351;BME280;62766;62.622;17.912;2023-03-09T03:39:39;99481.36;;;-11.83;46.54
44351;BME280;62766;62.622;17.912;2023-03-09T03:42:08;99482.47;;;-11.82;46.69
44351;BME280;62766;62.622;17.912;2023-03-09T03:44:37;99483.10;;;-12.00;46.67
44351;BME280;62766;62.622;17.912;2023-03-09T03:47:06;99485.68;;;-12.19;46.64
44351;BME280;62766;62.622;17.912;2023-03-09T03:49:34;99485.24;;;-12.18;46.65
44351;BME280;62766;62.622;17.912;2023-03-09T03:52:03;99491.89;;;-12.30;46.67
44351;BME280;62766;62.622;17.912;2023-03-09T03:54:32;99492.88;;;-12.40;46.13
44351;BME280;62766;62.622;17.912;2023-03-09T03:57:01;99492.87;;;-12.37;46.29
44351;BME280;62766;62.622;17.912;2023-03-09T03:59:30;99495.66;;;-12.46;46.50
44351;BME280;62766;62.622;17.912;2023-03-09T04:01:59;99497.99;;;-12.54;47.00
44351;BME280;62766;62.622;17.912;2023-03-09T04:04:28;99500.70;;;-12.48;47.21
44351;BME280;62766;62.622;17.912;2023-03-09T04:06:57;99504.78;;;-12.60;47.40
44351;BME280;62766;62.622;17.912;2023-03-09T04:09:26;99508.88;;;-12.73;47.30
44351;BME280;62766;62.622;17.912;2023-03-09T04:11:54;99509.19;;;-12.85;47.32
44351;BME280;62766;62.622;17.912;2023-03-09T04:14:24;99511.93;;;-12.93;47.13
44351;BME280;62766;62.622;17.912;2023-03-09T04:16:53;99515.29;;;-13.06;47.44
44351;BME280;62766;62.622;17.912;2023-03-09T04:19:21;99514.25;;;-13.04;47.44
44351;BME280;62766;62.622;17.912;2023-03-09T04:21:51;99513.50;;;-13.07;47.39
44351;BME280;62766;62.622;17.912;2023-03-09T04:24:21;99516.26;;;-13.09;47.25
44351;BME280;62766;62.622;17.912;2023-03-09T04:26:50;99514.59;;;-13.13;47.37
44351;BME280;62766;62.622;17.912;2023-03-09T04:29:19;99518.52;;;-13.04;47.54
44351;BME280;62766;62.622;17.912;2023-03-09T04:31:47;99516.51;;;-12.97;47.64
44351;BME280;62766;62.622;17.912;2023-03-09T04:34:16;99519.08;;;-13.16;47.45
44351;BME280;62766;62.622;17.912;2023-03-09T04:36:45;99521.07;;;-13.39;47.66
44351;BME280;62766;62.622;17.912;2023-03-09T04:39:14;99522.34;;;-13.43;47.86
44351;BME280;62766;62.622;17.912;2023-03-09T04:41:43;99521.12;;;-13.35;47.70
44351;BME280;62766;62.622;17.912;2023-03-09T04:44:12;99519.71;;;-13.28;47.93
44351;BME280;62766;62.622;17.912;2023-03-09T04:46:41;99521.65;;;-13.47;47.78
44351;BME280;62766;62.622;17.912;2023-03-09T04:49:10;99526.32;;;-13.41;47.70
44351;BME280;62766;62.622;17.912;2023-03-09T04:51:38;99527.99;;;-13.38;47.70
44351;BME280;62766;62.622;17.912;2023-03-09T04:54:07;99531.97;;;-13.49;47.53
44351;BME280;62766;62.622;17.912;2023-03-09T04:56:36;99528.53;;;-13.37;47.65
44351;BME280;62766;62.622;17.912;2023-03-09T04:59:05;99528.31;;;-13.41;47.68
44351;BME280;62766;62.622;17.912;2023-03-09T05:03:29;99522.09;;;-13.41;47.96
44351;BME280;62766;62.622;17.912;2023-03-09T05:05:57;99523.55;;;-13.48;48.01
44351;BME280;62766;62.622;17.912;2023-03-09T05:08:26;99521.69;;;-13.39;47.95
44351;BME280;62766;62.622;17.912;2023-03-09T05:10:55;99519.96;;;-13.40;48.11
44351;BME280;62766;62.622;17.912;2023-03-09T05:13:24;99517.41;;;-13.14;48.27
44351;BME280;62766;62.622;17.912;2023-03-09T05:15:52;99510.68;;;-13.32;48.17
44351;BME280;62766;62.622;17.912;2023-03-09T05:18:21;99507.63;;;-13.17;47.93
44351;BME280;62766;62.622;17.912;2023-03-09T05:20:50;99506.96;;;-13.19;47.91
44351;BME280;62766;62.622;17.912;2023-03-09T05:23:19;99510.90;;;-13.13;47.97
44351;BME280;62766;62.622;17.912;2023-03-09T05:25:56;99513.61;;;-13.30;48.28
44351;BME280;62766;62.622;17.912;2023-03-09T05:28:24;99515.18;;;-13.36;48.23
44351;BME280;62766;62.622;17.912;2023-03-09T05:30:53;99519.21;;;-13.53;47.72
44351;BME280;62766;62.622;17.912;2023-03-09T05:33:22;99521.33;;;-13.74;47.68
44351;BME280;62766;62.622;17.912;2023-03-09T05:35:50;99522.03;;;-13.72;48.15
44351;BME280;62766;62.622;17.912;2023-03-09T05:38:19;99523.45;;;-13.74;48.55
44351;BME280;62766;62.622;17.912;2023-03-09T05:40:47;99523.31;;;-13.63;48.63
44351;BME280;62766;62.622;17.912;2023-03-09T05:43:15;99520.74;;;-13.54;48.90
44351;BME280;62766;62.622;17.912;2023-03-09T05:45:44;99520.58;;;-13.51;48.77
44351;BME280;62766;62.622;17.912;2023-03-09T05:48:22;99520.15;;;-13.47;48.53
44351;BME280;62766;62.622;17.912;2023-03-09T05:50:51;99520.74;;;-13.39;48.50
44351;BME280;62766;62.622;17.912;2023-03-09T05:53:20;99523.43;;;-13.52;48.37
44351;BME280;62766;62.622;17.912;2023-03-09T05:55:50;99521.63;;;-13.52;48.23
44351;BME280;62766;62.622;17.912;2023-03-09T05:58:19;99522.61;;;-13.47;47.61
44351;BME280;62766;62.622;17.912;2023-03-09T06:00:47;99524.43;;;-13.59;47.63
44351;BME280;62766;62.622;17.912;2023-03-09T06:03:16;99522.33;;;-13.46;48.05
44351;BME280;62766;62.622;17.912;2023-03-09T06:05:45;99518.52;;;-13.48;47.88
44351;BME280;62766;62.622;17.912;2023-03-09T06:08:14;99517.26;;;-13.39;47.98
44351;BME280;62766;62.622;17.912;2023-03-09T06:10:43;99517.73;;;-13.30;47.85
44351;BME280;62766;62.622;17.912;2023-03-09T06:13:12;99520.80;;;-13.20;47.70
44351;BME280;62766;62.622;17.912;2023-03-09T06:15:40;99519.76;;;-13.16;47.10
44351;BME280;62766;62.622;17.912;2023-03-09T06:18:09;99524.27;;;-13.37;46.02
44351;BME280;62766;62.622;17.912;2023-03-09T06:20:38;99525.74;;;-13.46;46.27
44351;BME280;62766;62.622;17.912;2023-03-09T06:23:06;99531.64;;;-13.46;46.74
44351;BME280;62766;62.622;17.912;2023-03-09T06:25:36;99531.97;;;-13.33;46.87
44351;BME280;62766;62.622;17.912;2023-03-09T06:28:05;99531.15;;;-13.12;46.89
44351;BME280;62766;62.622;17.912;2023-03-09T06:30:34;99537.81;;;-13.03;46.39
44351;BME280;62766;62.622;17.912;2023-03-09T06:33:03;99532.39;;;-12.94;46.26
44351;BME280;62766;62.622;17.912;2023-03-09T06:35:33;99535.52;;;-12.92;45.96
44351;BME280;62766;62.622;17.912;2023-03-09T06:38:02;99539.28;;;-12.88;45.64
44351;BME280;62766;62.622;17.912;2023-03-09T06:40:30;99531.44;;;-12.61;45.43
44351;BME280;62766;62.622;17.912;2023-03-09T06:42:59;99529.01;;;-12.70;45.28
44351;BME280;62766;62.622;17.912;2023-03-09T06:45:28;99529.47;;;-12.48;45.18
44351;BME280;62766;62.622;17.912;2023-03-09T06:47:57;99537.56;;;-12.43;44.94
44351;BME280;62766;62.622;17.912;2023-03-09T06:50:27;99541.53;;;-12.35;44.93
44351;BME280;62766;62.622;17.912;2023-03-09T06:52:55;99542.40;;;-12.26;45.23
44351;BME280;62766;62.622;17.912;2023-03-09T06:55:23;99544.69;;;-12.24;44.95
44351;BME280;62766;62.622;17.912;2023-03-09T06:57:52;99545.50;;;-12.07;44.88
44351;BME280;62766;62.622;17.912;2023-03-09T07:00:21;99544.64;;;-12.04;44.80
44351;BME280;62766;62.622;17.912;2023-03-09T07:02:49;99545.52;;;-11.96;44.69
44351;BME280;62766;62.622;17.912;2023-03-09T07:05:18;99548.27;;;-11.74;44.41
44351;BME280;62766;62.622;17.912;2023-03-09T07:07:47;99549.40;;;-11.62;44.19
44351;BME280;62766;62.622;17.912;2023-03-09T07:10:16;99548.35;;;-11.75;43.96
44351;BME280;62766;62.622;17.912;2023-03-09T07:12:47;99548.98;;;-11.85;43.35
44351;BME280;62766;62.622;17.912;2023-03-09T07:15:15;99547.28;;;-11.77;43.29
44351;BME280;62766;62.622;17.912;2023-03-09T07:17:44;99546.99;;;-11.75;43.66
44351;BME280;62766;62.622;17.912;2023-03-09T07:20:13;99546.18;;;-11.62;43.88
44351;BME280;62766;62.622;17.912;2023-03-09T07:22:42;99545.74;;;-11.39;43.79
44351;BME280;62766;62.622;17.912;2023-03-09T07:25:11;99543.83;;;-11.25;43.70
44351;BME280;62766;62.622;17.912;2023-03-09T07:27:40;99543.38;;;-11.17;43.61
44351;BME280;62766;62.622;17.912;2023-03-09T07:30:10;99543.20;;;-10.89;43.28
44351;BME280;62766;62.622;17.912;2023-03-09T07:32:40;99548.39;;;-10.76;43.18
44351;BME280;62766;62.622;17.912;2023-03-09T07:35:09;99548.91;;;-10.70;43.14
44351;BME280;62766;62.622;17.912;2023-03-09T07:37:37;99551.24;;;-10.56;43.02
44351;BME280;62766;62.622;17.912;2023-03-09T07:40:08;99550.93;;;-10.42;42.60
44351;BME280;62766;62.622;17.912;2023-03-09T07:42:37;99551.46;;;-10.26;42.24
44351;BME280;62766;62.622;17.912;2023-03-09T07:45:07;99548.69;;;-10.21;42.13
44351;BME280;62766;62.622;17.912;2023-03-09T07:47:35;99554.10;;;-10.21;42.10
44351;BME280;62766;62.622;17.912;2023-03-09T07:50:04;99547.42;;;-10.13;42.05
44351;BME280;62766;62.622;17.912;2023-03-09T07:52:32;99544.33;;;-9.92;41.95
44351;BME280;62766;62.622;17.912;2023-03-09T07:55:01;99544.04;;;-9.95;41.90
44351;BME280;62766;62.622;17.912;2023-03-09T07:57:30;99544.78;;;-9.83;41.81
44351;BME280;62766;62.622;17.912;2023-03-09T08:00:01;99542.38;;;-9.79;42.05
44351;BME280;62766;62.622;17.912;2023-03-09T08:02:30;99545.93;;;-9.62;42.15
44351;BME280;62766;62.622;17.912;2023-03-09T08:04:59;99544.67;;;-9.54;42.02
44351;BME280;62766;62.622;17.912;2023-03-09T08:07:28;99550.94;;;-9.53;42.01
44351;BME280;62766;62.622;17.912;2023-03-09T08:09:57;99553.18;;;-9.26;41.96
44351;BME280;62766;62.622;17.912;2023-03-09T08:12:26;99554.22;;;-9.14;41.82
44351;BME280;62766;62.622;17.912;2023-03-09T08:14:54;99549.92;;;-9.13;41.81
44351;BME280;62766;62.622;17.912;2023-03-09T08:17:22;99549.40;;;-9.02;41.61
44351;BME280;62766;62.622;17.912;2023-03-09T08:19:51;99549.47;;;-8.95;41.29
44351;BME280;62766;62.622;17.912;2023-03-09T08:22:20;99548.03;;;-8.91;41.42
44351;BME280;62766;62.622;17.912;2023-03-09T08:24:49;99545.60;;;-8.76;41.54
44351;BME280;62766;62.622;17.912;2023-03-09T08:27:18;99544.67;;;-8.66;41.37
44351;BME280;62766;62.622;17.912;2023-03-09T08:29:46;99543.87;;;-8.61;41.38
44351;BME280;62766;62.622;17.912;2023-03-09T08:32:15;99549.64;;;-8.34;41.04
44351;BME280;62766;62.622;17.912;2023-03-09T08:34:44;99550.58;;;-8.30;40.91
44351;BME280;62766;62.622;17.912;2023-03-09T08:37:13;99550.08;;;-8.19;40.67
44351;BME280;62766;62.622;17.912;2023-03-09T08:39:41;99548.76;;;-8.24;40.53
44351;BME280;62766;62.622;17.912;2023-03-09T08:42:10;99550.49;;;-8.00;40.16
44351;BME280;62766;62.622;17.912;2023-03-09T08:44:40;99548.01;;;-7.83;39.97
44351;BME280;62766;62.622;17.912;2023-03-09T08:47:10;99550.29;;;-7.66;40.26
44351;BME280;62766;62.622;17.912;2023-03-09T08:49:39;99549.77;;;-7.50;39.94
44351;BME280;62766;62.622;17.912;2023-03-09T08:52:08;99542.29;;;-7.45;39.89
44351;BME280;62766;62.622;17.912;2023-03-09T08:54:36;99539.18;;;-7.20;40.26
44351;BME280;62766;62.622;17.912;2023-03-09T08:57:05;99537.39;;;-7.29;40.36
44351;BME280;62766;62.622;17.912;2023-03-09T08:59:33;99536.26;;;-7.18;40.13
44351;BME280;62766;62.622;17.912;2023-03-09T09:02:02;99540.56;;;-6.99;39.82
44351;BME280;62766;62.622;17.912;2023-03-09T09:04:30;99538.13;;;-6.92;39.91
44351;BME280;62766;62.622;17.912;2023-03-09T09:07:00;99538.04;;;-6.84;40.22
44351;BME280;62766;62.622;17.912;2023-03-09T09:09:29;99537.86;;;-6.80;40.52
44351;BME280;62766;62.622;17.912;2023-03-09T09:11:58;99539.78;;;-6.74;40.23
44351;BME280;62766;62.622;17.912;2023-03-09T09:14:27;99542.78;;;-6.70;39.98
44351;BME280;62766;62.622;17.912;2023-03-09T09:16:57;99538.59;;;-6.49;39.94
44351;BME280;62766;62.622;17.912;2023-03-09T09:19:25;99545.94;;;-6.53;39.95
44351;BME280;62766;62.622;17.912;2023-03-09T09:21:53;99543.59;;;-6.43;39.82
44351;BME280;62766;62.622;17.912;2023-03-09T09:24:23;99546.94;;;-6.18;39.83
44351;BME280;62766;62.622;17.912;2023-03-09T09:26:53;99547.98;;;-6.12;39.54
44351;BME280;62766;62.622;17.912;2023-03-09T09:29:21;99546.99;;;-6.04;39.50
44351;BME280;62766;62.622;17.912;2023-03-09T09:31:50;99550.43;;;-5.94;39.50
44351;BME280;62766;62.622;17.912;2023-03-09T09:34:20;99547.92;;;-5.82;39.59
44351;BME280;62766;62.622;17.912;2023-03-09T09:36:49;99548.37;;;-5.85;39.39
44351;BME280;62766;62.622;17.912;2023-03-09T09:39:18;99544.32;;;-5.80;39.24
44351;BME280;62766;62.622;17.912;2023-03-09T09:41:50;99543.97;;;-5.66;39.40
44351;BME280;62766;62.622;17.912;2023-03-09T09:44:22;99547.98;;;-5.68;39.55
44351;BME280;62766;62.622;17.912;2023-03-09T09:46:53;99546.42;;;-5.44;39.45
44351;BME280;62766;62.622;17.912;2023-03-09T09:49:25;99542.19;;;-5.47;39.14
44351;BME280;62766;62.622;17.912;2023-03-09T09:52:05;99541.20;;;-5.35;39.43
44351;BME280;62766;62.622;17.912;2023-03-09T09:54:38;99539.02;;;-5.18;39.39
44351;BME280;62766;62.622;17.912;2023-03-09T09:57:14;99539.43;;;-5.17;39.35
44351;BME280;62766;62.622;17.912;2023-03-09T09:59:50;99536.50;;;-5.07;39.24
44351;BME280;62766;62.622;17.912;2023-03-09T10:02:37;99533.12;;;-5.01;39.35
44351;BME280;62766;62.622;17.912;2023-03-09T10:05:15;99534.45;;;-4.77;39.23
44351;BME280;62766;62.622;17.912;2023-03-09T10:07:44;99532.14;;;-4.48;38.95
44351;BME280;62766;62.622;17.912;2023-03-09T10:10:17;99533.33;;;-4.16;38.83
44351;BME280;62766;62.622;17.912;2023-03-09T10:12:47;99527.03;;;-3.99;38.68
44351;BME280;62766;62.622;17.912;2023-03-09T10:15:21;99523.09;;;-3.80;38.82
44351;BME280;62766;62.622;17.912;2023-03-09T10:17:55;99523.65;;;-3.51;38.36
44351;BME280;62766;62.622;17.912;2023-03-09T10:20:30;99521.96;;;-3.20;38.41
44351;BME280;62766;62.622;17.912;2023-03-09T10:23:11;99520.91;;;-2.95;38.19
44351;BME280;62766;62.622;17.912;2023-03-09T10:25:42;99519.02;;;-2.74;38.14
44351;BME280;62766;62.622;17.912;2023-03-09T10:28:16;99517.48;;;-2.52;38.03
44351;BME280;62766;62.622;17.912;2023-03-09T10:30:50;99521.25;;;-2.37;37.92
44351;BME280;62766;62.622;17.912;2023-03-09T10:33:29;99523.60;;;-2.47;38.16
44351;BME280;62766;62.622;17.912;2023-03-09T10:36:06;99525.70;;;-2.35;38.42
44351;BME280;62766;62.622;17.912;2023-03-09T10:38:38;99525.79;;;-2.18;38.59
44351;BME280;62766;62.622;17.912;2023-03-09T10:41:14;99523.33;;;-1.94;38.63
44351;BME280;62766;62.622;17.912;2023-03-09T10:43:43;99524.55;;;-1.94;38.51
44351;BME280;62766;62.622;17.912;2023-03-09T10:46:13;99522.71;;;-1.65;38.20
44351;BME280;62766;62.622;17.912;2023-03-09T10:48:42;99522.66;;;-1.49;38.23
44351;BME280;62766;62.622;17.912;2023-03-09T10:51:24;99516.68;;;-1.38;38.34
44351;BME280;62766;62.622;17.912;2023-03-09T10:53:53;99515.50;;;-1.22;38.19
44351;BME280;62766;62.622;17.912;2023-03-09T10:56:25;99511.40;;;-1.27;38.58
44351;BME280;62766;62.622;17.912;2023-03-09T10:59:14;99506.68;;;-1.09;38.76
44351;BME280;62766;62.622;17.912;2023-03-09T11:03:23;99505.12;;;-1.09;39.07
44351;BME280;62766;62.622;17.912;2023-03-09T11:05:52;99503.62;;;-0.94;39.14
44351;BME280;62766;62.622;17.912;2023-03-09T11:08:23;99503.18;;;-0.77;39.54
44351;BME280;62766;62.622;17.912;2023-03-09T11:11:01;99500.90;;;-0.58;39.68
44351;BME280;62766;62.622;17.912;2023-03-09T11:13:31;99501.98;;;-0.69;40.05
44351;BME280;62766;62.622;17.912;2023-03-09T11:16:12;99504.63;;;-0.18;40.11
44351;BME280;62766;62.622;17.912;2023-03-09T11:18:41;99503.81;;;0.37;39.89
44351;BME280;62766;62.622;17.912;2023-03-09T11:21:20;99502.77;;;0.57;39.23
44351;BME280;62766;62.622;17.912;2023-03-09T11:23:51;99501.09;;;0.75;38.78
44351;BME280;62766;62.622;17.912;2023-03-09T11:26:23;99504.07;;;0.77;38.59
44351;BME280;62766;62.622;17.912;2023-03-09T11:28:57;99502.41;;;0.91;38.48
44351;BME280;62766;62.622;17.912;2023-03-09T11:31:33;99501.89;;;1.22;38.54
44351;BME280;62766;62.622;17.912;2023-03-09T11:34:05;99499.28;;;1.05;38.09
44351;BME280;62766;62.622;17.912;2023-03-09T11:36:38;99504.49;;;0.76;38.08
44351;BME280;62766;62.622;17.912;2023-03-09T11:39:15;99501.30;;;0.48;38.36
44351;BME280;62766;62.622;17.912;2023-03-09T11:41:45;99503.51;;;0.11;38.85
44351;BME280;62766;62.622;17.912;2023-03-09T11:44:23;99500.17;;;0.35;39.43
44351;BME280;62766;62.622;17.912;2023-03-09T11:46:57;99499.20;;;0.41;38.88
44351;BME280;62766;62.622;17.912;2023-03-09T11:49:30;99502.64;;;0.03;38.91
44351;BME280;62766;62.622;17.912;2023-03-09T11:52:00;99500.44;;;0.25;39.83
44351;BME280;62766;62.622;17.912;2023-03-09T11:54:31;99503.70;;;0.26;39.35
44351;BME280;62766;62.622;17.912;2023-03-09T11:57:07;99499.50;;;0.39;39.30
44351;BME280;62766;62.622;17.912;2023-03-09T11:59:39;99499.39;;;0.39;39.24
44351;BME280;62766;62.622;17.912;2023-03-09T12:02:14;99500.48;;;0.59;39.40
44351;BME280;62766;62.622;17.912;2023-03-09T12:04:49;99498.26;;;0.61;39.14
44351;BME280;62766;62.622;17.912;2023-03-09T12:07:22;99502.62;;;0.58;39.32
44351;BME280;62766;62.622;17.912;2023-03-09T12:09:57;99499.18;;;0.76;39.35
44351;BME280;62766;62.622;17.912;2023-03-09T12:12:31;99493.79;;;1.03;39.32
44351;BME280;62766;62.622;17.912;2023-03-09T12:15:06;99496.02;;;0.84;39.02
44351;BME280;62766;62.622;17.912;2023-03-09T12:17:46;99491.74;;;0.38;39.24
44351;BME280;62766;62.622;17.912;2023-03-09T12:20:22;99491.62;;;0.73;39.58
44351;BME280;62766;62.622;17.912;2023-03-09T12:22:52;99492.87;;;0.66;39.45
44351;BME280;62766;62.622;17.912;2023-03-09T12:25:22;99495.20;;;0.49;39.18
44351;BME280;62766;62.622;17.912;2023-03-09T12:27:52;99496.30;;;0.23;39.22
44351;BME280;62766;62.622;17.912;2023-03-09T12:30:24;99499.12;;;0.00;39.41
44351;BME280;62766;62.622;17.912;2023-03-09T12:32:53;99497.92;;;-0.42;39.56
44351;BME280;62766;62.622;17.912;2023-03-09T12:35:57;99497.44;;;-0.34;40.04
44351;BME280;62766;62.622;17.912;2023-03-09T12:38:25;99494.86;;;-0.33;39.93
44351;BME280;62766;62.622;17.912;2023-03-09T12:40:54;99495.62;;;-0.03;39.88
44351;BME280;62766;62.622;17.912;2023-03-09T12:43:45;99490.04;;;0.27;39.07
44351;BME280;62766;62.622;17.912;2023-03-09T12:46:50;99491.45;;;0.21;38.52
44351;BME280;62766;62.622;17.912;2023-03-09T12:49:22;99488.73;;;-0.05;38.65
44351;BME280;62766;62.622;17.912;2023-03-09T12:52:06;99489.93;;;-0.29;38.46
44351;BME280;62766;62.622;17.912;2023-03-09T12:54:37;99487.32;;;-0.60;38.52
44351;BME280;62766;62.622;17.912;2023-03-09T12:57:17;99484.19;;;-0.69;38.79
44351;BME280;62766;62.622;17.912;2023-03-09T12:59:46;99480.37;;;-0.08;38.95
44351;BME280;62766;62.622;17.912;2023-03-09T13:02:24;99479.60;;;-0.16;38.55
44351;BME280;62766;62.622;17.912;2023-03-09T13:05:59;99480.08;;;-0.22;38.81
44351;BME280;62766;62.622;17.912;2023-03-09T13:08:31;99472.84;;;0.39;38.15